Time;durP1;ratioP1;P1;durP2;ratioP2;P2;SDS_P1;SDS_P2;PMS_P1;PMS_P2;Temp;Humidity;BMP_temperature;BMP_pressure;BME280_temperature;BME280_humidity;BME280_pressure;Samples;Min_cycle;Max_cycle;Signal;HPM_P1;HPM_P2
2021/01/12 00:00:32;;;;;;;;;110.50;76.50;;;;;-5.71;90.18;100104.72;5016226;28;8961;-59
2021/01/12 00:03:00;;;;;;;;;112.50;81.50;;;;;-5.40;89.89;100105.91;5022834;28;8893;-59
2021/01/12 00:05:29;;;;;;;;;103.00;72.00;;;;;-5.46;89.69;100092.78;5021494;28;8939;-59
2021/01/12 00:07:56;;;;;;;;;116.75;89.25;;;;;-5.55;88.90;100093.59;5017827;28;8942;-59
2021/01/12 00:10:24;;;;;;;;;106.50;77.50;;;;;-5.44;89.38;100084.09;5024525;28;8827;-59
2021/01/12 00:12:54;;;;;;;;;104.50;72.00;;;;;-5.48;90.06;100086.66;5021001;28;8828;-59
2021/01/12 00:15:22;;;;;;;;;108.25;74.50;;;;;-5.36;89.11;100086.78;5007085;28;8840;-59
2021/01/12 00:17:48;;;;;;;;;113.00;77.00;;;;;-5.64;90.37;100076.03;5015079;28;9591;-59
2021/01/12 00:20:16;;;;;;;;;117.50;76.50;;;;;-5.87;90.68;100077.53;5013964;28;8855;-59
2021/01/12 00:22:43;;;;;;;;;99.50;74.50;;;;;-5.99;90.98;100086.16;5020007;28;8933;-59
2021/01/12 00:25:10;;;;;;;;;102.75;70.50;;;;;-5.98;91.11;100086.19;5035326;28;8839;-59
2021/01/12 00:27:52;;;;;;;;;118.50;79.25;;;;;-5.83;91.02;100089.78;5022133;28;8905;-59
2021/01/12 00:30:21;;;;;;;;;100.50;71.00;;;;;-6.05;90.88;100086.97;5017523;28;8831;-59
2021/01/12 00:32:48;;;;;;;;;113.00;76.50;;;;;-6.06;91.17;100077.34;5026771;28;8824;-59
2021/01/12 00:35:15;;;;;;;;;49.75;28.00;;;;;-5.89;91.57;100084.50;5028473;28;8871;-59
2021/01/12 00:37:42;;;;;;;;;113.00;82.00;;;;;-5.61;90.84;100081.31;5019721;28;8840;-58
2021/01/12 00:40:11;;;;;;;;;92.25;59.50;;;;;-5.52;90.24;100081.41;5020592;28;9647;-58
2021/01/12 00:42:38;;;;;;;;;104.75;72.00;;;;;-5.51;90.66;100084.88;5019305;28;8951;-58
2021/01/12 00:45:06;;;;;;;;;112.00;75.75;;;;;-5.47;90.27;100083.19;5018493;28;8923;-59
2021/01/12 00:47:33;;;;;;;;;95.50;68.00;;;;;-5.40;90.57;100079.75;5036132;28;9646;-59
2021/01/12 00:50:00;;;;;;;;;93.25;64.50;;;;;-5.67;90.32;100076.00;5021813;28;8867;-58
2021/01/12 00:52:27;;;;;;;;;107.50;62.50;;;;;-5.83;90.20;100077.59;5021135;28;8886;-59
2021/01/12 00:54:54;;;;;;;;;103.00;70.50;;;;;-5.60;90.17;100079.56;5019487;28;8901;-59
2021/01/12 00:57:21;;;;;;;;;102.50;68.75;;;;;-5.47;89.97;100085.81;5020932;28;8827;-59
2021/01/12 00:59:48;;;;;;;;;96.25;70.00;;;;;-5.68;90.26;100084.72;5012682;28;8874;-58
2021/01/12 01:02:15;;;;;;;;;93.25;66.00;;;;;-5.78;90.74;100088.09;5015413;28;8848;-58
2021/01/12 01:04:42;;;;;;;;;93.25;70.00;;;;;-5.81;90.22;100080.22;5023067;28;9588;-57
2021/01/12 01:07:09;;;;;;;;;99.75;69.75;;;;;-5.84;91.01;100082.81;5015387;28;8837;-59
2021/01/12 01:09:36;;;;;;;;;95.00;67.00;;;;;-5.92;91.38;100076.59;5020637;28;9599;-59
2021/01/12 01:12:03;;;;;;;;;96.25;64.50;;;;;-5.75;90.63;100082.91;5022141;28;8878;-58
2021/01/12 01:14:30;;;;;;;;;84.50;60.00;;;;;-5.93;91.16;100073.13;5019277;28;8827;-59
2021/01/12 01:16:57;;;;;;;;;93.75;68.75;;;;;-6.02;91.62;100078.28;5021589;28;8939;-59
2021/01/12 01:19:24;;;;;;;;;97.00;72.00;;;;;-5.88;90.71;100075.78;5013335;28;8839;-59
2021/01/12 01:21:52;;;;;;;;;103.00;69.25;;;;;-5.86;90.60;100071.47;5002621;28;8861;-58
2021/01/12 01:24:20;;;;;;;;;109.00;78.25;;;;;-5.75;91.27;100059.38;5025103;28;8930;-58
2021/01/12 01:26:54;;;;;;;;;114.00;77.50;;;;;-5.66;90.47;100056.84;5016506;28;8851;-58
2021/01/12 01:29:21;;;;;;;;;113.50;84.00;;;;;-6.04;90.16;100065.19;5015120;28;8816;-58
2021/01/12 01:31:48;;;;;;;;;103.75;74.00;;;;;-5.89;90.63;100063.59;5021542;28;9627;-58
2021/01/12 01:34:15;;;;;;;;;104.75;74.25;;;;;-5.59;90.55;100061.25;5017155;28;8831;-57
2021/01/12 01:36:42;;;;;;;;;90.50;60.50;;;;;-5.79;89.48;100049.75;5023419;28;8910;-58
2021/01/12 01:39:09;;;;;;;;;96.50;66.75;;;;;-5.28;88.93;100061.56;5026930;28;8852;-58
2021/01/12 01:41:36;;;;;;;;;96.00;66.50;;;;;-5.51;88.42;100053.50;5024527;28;8859;-58
2021/01/12 01:44:06;;;;;;;;;102.25;71.00;;;;;-6.01;89.63;100054.75;5015031;28;8956;-58
2021/01/12 01:46:34;;;;;;;;;104.75;72.00;;;;;-6.32;89.98;100057.88;5010339;28;8853;-58
2021/01/12 01:49:01;;;;;;;;;93.75;68.00;;;;;-6.02;89.35;100055.63;5013126;28;8920;-58
2021/01/12 01:51:29;;;;;;;;;104.00;69.25;;;;;-6.19;88.88;100051.94;5021374;28;8966;-58
2021/01/12 01:53:57;;;;;;;;;97.00;68.50;;;;;-6.33;90.61;100051.78;5016418;28;8879;-58
2021/01/12 01:56:26;;;;;;;;;96.75;65.00;;;;;-5.97;90.67;100056.56;5037892;28;8867;-58
2021/01/12 01:58:54;;;;;;;;;85.00;63.00;;;;;-5.99;90.98;100047.81;5017498;28;8850;-58
2021/01/12 02:01:21;;;;;;;;;89.50;62.00;;;;;-6.01;90.85;100048.66;5022376;28;8942;-58
2021/01/12 02:04:29;;;;;;;;;78.50;55.00;;;;;-6.27;90.42;100040.53;5033169;28;8891;-58
2021/01/12 02:07:02;;;;;;;;;71.75;48.00;;;;;-6.15;91.09;100043.28;5015445;28;8863;-58
2021/01/12 02:09:48;;;;;;;;;77.25;58.00;;;;;-6.00;90.43;100033.00;5034849;28;8868;-58
2021/01/12 02:12:40;;;;;;;;;79.50;60.00;;;;;-5.71;90.59;100040.25;5028625;28;8931;-58
2021/01/12 02:15:09;;;;;;;;;78.00;57.25;;;;;-6.18;90.80;100038.03;5039766;28;8839;-58
2021/01/12 02:17:36;;;;;;;;;84.25;56.00;;;;;-6.25;91.54;100034.47;5018236;28;9722;-58
2021/01/12 02:20:04;;;;;;;;;83.50;60.50;;;;;-6.21;91.71;100035.38;5045964;28;8832;-58
2021/01/12 02:22:32;;;;;;;;;68.50;49.25;;;;;-6.10;92.45;100031.16;5034657;28;8843;-58
2021/01/12 02:25:00;;;;;;;;;90.00;61.75;;;;;-6.02;91.19;100026.88;5038475;28;9575;-58
2021/01/12 02:27:26;;;;;;;;;73.50;47.00;;;;;-5.94;90.81;100020.88;5023828;28;8875;-58
2021/01/12 02:29:53;;;;;;;;;90.00;62.75;;;;;-6.16;90.33;100023.25;5024785;28;8975;-57
2021/01/12 02:32:21;;;;;;;;;100.00;69.00;;;;;-6.27;91.07;100014.41;5026062;28;8829;-58
2021/01/12 02:34:54;;;;;;;;;88.00;65.00;;;;;-6.12;91.33;100011.97;5036431;28;8969;-56
2021/01/12 02:37:21;;;;;;;;;95.50;67.25;;;;;-5.79;91.60;100007.91;5022777;28;8955;-58
2021/01/12 02:40:01;;;;;;;;;94.00;63.50;;;;;-5.83;90.94;100006.13;5021845;28;8866;-58
2021/01/12 02:42:28;;;;;;;;;104.75;71.50;;;;;-6.09;91.40;99987.59;5016369;28;8839;-57
2021/01/12 02:44:55;;;;;;;;;89.75;62.00;;;;;-6.02;91.09;99992.91;5025320;28;8856;-57
2021/01/12 02:47:22;;;;;;;;;101.50;70.00;;;;;-6.20;91.13;99979.66;5025203;28;8844;-57
2021/01/12 02:49:49;;;;;;;;;102.00;71.50;;;;;-6.54;91.19;99987.09;5012514;28;8921;-56
2021/01/12 02:52:16;;;;;;;;;86.50;58.75;;;;;-6.50;91.32;99981.06;5023978;28;8867;-58
2021/01/12 02:54:43;;;;;;;;;92.50;66.75;;;;;-6.99;91.74;99983.03;5022047;28;8859;-58
2021/01/12 02:57:10;;;;;;;;;88.75;66.00;;;;;-6.85;91.32;99986.69;5019196;28;8843;-58
2021/01/12 02:59:37;;;;;;;;;89.75;60.50;;;;;-6.88;90.95;99980.56;5024387;28;8840;-58
2021/01/12 03:02:04;;;;;;;;;101.00;67.25;;;;;-6.71;91.24;99975.59;5018128;28;8844;-58
2021/01/12 03:04:32;;;;;;;;;105.50;72.75;;;;;-7.08;91.35;99977.69;5019206;28;8838;-58
2021/01/12 03:06:59;;;;;;;;;109.50;75.50;;;;;-6.82;91.25;99974.53;5025949;28;8848;-56
2021/01/12 03:09:26;;;;;;;;;107.75;74.50;;;;;-6.89;91.18;99978.81;5021266;28;8936;-56
2021/01/12 03:11:53;;;;;;;;;96.25;63.75;;;;;-6.53;90.96;99970.59;5026174;28;8872;-57
2021/01/12 03:14:21;;;;;;;;;96.25;69.00;;;;;-6.76;90.69;99972.03;5025692;28;8878;-56
2021/01/12 03:16:51;;;;;;;;;93.50;65.50;;;;;-6.64;90.75;99964.34;5022439;28;8861;-56
2021/01/12 03:19:19;;;;;;;;;95.00;66.75;;;;;-6.72;90.48;99956.41;5020943;28;8848;-56
2021/01/12 03:21:47;;;;;;;;;88.75;66.00;;;;;-6.92;91.07;99958.78;5023629;28;8873;-58
2021/01/12 03:24:14;;;;;;;;;90.75;66.00;;;;;-6.54;90.82;99954.88;5025353;28;8904;-57
2021/01/12 03:26:41;;;;;;;;;141.25;108.00;;;;;-6.62;90.57;99960.03;5017096;28;8958;-57
2021/01/12 03:29:08;;;;;;;;;115.25;79.50;;;;;-6.78;90.91;99958.09;5023579;28;8959;-58
2021/01/12 03:31:36;;;;;;;;;81.50;58.00;;;;;-6.81;90.86;99963.28;5021584;28;8854;-58
2021/01/12 03:34:03;;;;;;;;;75.25;54.00;;;;;-7.07;90.88;99962.06;5021654;28;10866;-57
2021/01/12 03:36:30;;;;;;;;;102.50;73.75;;;;;-6.83;91.11;99955.41;5021362;28;8838;-58
2021/01/12 03:38:57;;;;;;;;;86.00;59.00;;;;;-6.59;90.23;99951.34;5023883;28;8886;-57
2021/01/12 03:41:24;;;;;;;;;90.25;63.00;;;;;-7.05;90.21;99962.09;5014410;28;8835;-58
2021/01/12 03:43:51;;;;;;;;;90.25;61.50;;;;;-7.37;90.65;99954.69;5015090;28;8934;-57
2021/01/12 03:46:20;;;;;;;;;89.50;66.50;;;;;-7.67;92.21;99952.47;5015022;28;8985;-58
2021/01/12 03:48:47;;;;;;;;;85.25;56.50;;;;;-7.26;91.92;99953.97;5016256;28;8920;-58
2021/01/12 03:51:14;;;;;;;;;77.00;60.25;;;;;-7.40;91.74;99944.19;5015847;28;8882;-56
2021/01/12 03:53:41;;;;;;;;;80.25;59.00;;;;;-7.20;91.81;99947.09;5016097;28;8827;-58
2021/01/12 03:56:08;;;;;;;;;87.50;60.50;;;;;-6.99;90.74;99943.88;5015750;28;8934;-58
2021/01/12 03:58:36;;;;;;;;;92.50;64.00;;;;;-6.89;90.53;99939.69;5014519;28;8871;-58
2021/01/12 04:01:04;;;;;;;;;87.25;62.75;;;;;-7.34;89.99;99944.28;5015741;28;8857;-57
2021/01/12 04:03:30;;;;;;;;;90.50;58.50;;;;;-7.13;90.82;99946.31;5015766;28;8843;-57
2021/01/12 04:06:02;;;;;;;;;92.00;60.00;;;;;-6.94;90.78;99947.44;5015510;28;8888;-58
2021/01/12 04:08:29;;;;;;;;;81.00;60.75;;;;;-6.89;90.14;99945.75;5015041;28;8878;-57
2021/01/12 04:10:56;;;;;;;;;123.00;96.00;;;;;-6.88;90.24;99942.28;5015791;28;8857;-58
2021/01/12 04:13:24;;;;;;;;;114.50;82.00;;;;;-6.84;88.93;99938.00;5031228;28;8816;-58
2021/01/12 04:15:51;;;;;;;;;108.50;78.25;;;;;-7.07;89.85;99949.00;5015986;28;8830;-57
2021/01/12 04:18:18;;;;;;;;;106.50;76.25;;;;;-7.20;90.54;99933.16;5015474;28;8909;-58
2021/01/12 04:20:45;;;;;;;;;93.00;68.00;;;;;-7.41;90.97;99933.75;5014962;28;8831;-58
2021/01/12 04:23:12;;;;;;;;;79.50;56.00;;;;;-7.35;90.99;99933.81;5015966;28;8843;-57
2021/01/12 04:25:39;;;;;;;;;78.75;52.00;;;;;-7.25;90.60;99927.00;5015630;28;8852;-58
2021/01/12 04:28:06;;;;;;;;;94.00;75.50;;;;;-7.35;90.44;99934.69;5015149;28;8940;-57
2021/01/12 04:30:33;;;;;;;;;93.25;63.50;;;;;-7.11;90.15;99933.28;5015488;28;8850;-57
2021/01/12 04:33:00;;;;;;;;;106.75;75.00;;;;;-7.39;89.45;99935.53;5015193;28;8835;-57
2021/01/12 04:35:28;;;;;;;;;107.25;76.00;;;;;-7.67;90.17;99930.75;5015402;28;9602;-58
2021/01/12 04:37:55;;;;;;;;;101.00;66.25;;;;;-7.94;90.66;99921.63;5030640;28;8843;-57
2021/01/12 04:40:22;;;;;;;;;98.00;66.75;;;;;-7.39;89.34;99921.59;5014805;28;8942;-58
2021/01/12 04:42:49;;;;;;;;;110.00;72.50;;;;;-7.77;88.52;99916.69;5015261;28;9564;-58
2021/01/12 04:45:16;;;;;;;;;109.50;76.00;;;;;-7.24;88.53;99924.44;5015255;28;8862;-59
2021/01/12 04:47:43;;;;;;;;;103.50;72.25;;;;;-7.13;87.55;99921.97;5014885;28;8913;-58
2021/01/12 04:50:11;;;;;;;;;94.00;66.75;;;;;-7.56;88.04;99919.59;5014870;28;8917;-59
2021/01/12 04:52:49;;;;;;;;;86.00;60.50;;;;;-7.39;88.70;99926.81;5015221;28;8843;-58
2021/01/12 04:55:21;;;;;;;;;84.50;63.50;;;;;-7.29;87.79;99929.59;5014776;28;9012;-58
2021/01/12 04:57:49;;;;;;;;;90.00;65.50;;;;;-7.39;87.80;99932.03;5014674;28;8870;-58
2021/01/12 05:00:19;;;;;;;;;88.25;60.00;;;;;-7.54;88.40;99924.84;5014851;28;8831;-58
2021/01/12 05:03:02;;;;;;;;;92.25;63.50;;;;;-7.97;89.28;99916.38;5015025;28;8942;-57
2021/01/12 05:05:40;;;;;;;;;78.50;59.50;;;;;-7.60;90.00;99922.16;5015024;28;8846;-56
2021/01/12 05:08:10;;;;;;;;;73.25;52.00;;;;;-7.85;90.23;99918.28;5014398;28;8871;-56
2021/01/12 05:10:40;;;;;;;;;78.75;57.75;;;;;-7.59;90.12;99903.06;5014421;28;8862;-57
2021/01/12 05:13:13;;;;;;;;;91.00;66.00;;;;;-7.93;90.08;99901.66;5014119;28;8827;-57
2021/01/12 05:15:44;;;;;;;;;90.50;58.75;;;;;-8.01;90.58;99901.53;5014430;28;8847;-57
2021/01/12 05:18:11;;;;;;;;;78.50;54.25;;;;;-7.86;90.60;99907.00;5013429;28;8840;-57
2021/01/12 05:20:48;;;;;;;;;99.50;67.50;;;;;-7.75;90.77;99900.22;5014524;28;8870;-57
2021/01/12 05:23:23;;;;;;;;;106.25;72.00;;;;;-7.62;90.32;99903.00;5015103;28;8839;-58
2021/01/12 05:25:53;;;;;;;;;52.75;22.50;;;;;-7.29;90.20;99898.28;5014255;28;8871;-58
2021/01/12 05:28:20;;;;;;;;;108.00;75.50;;;;;-7.23;88.04;99901.84;5014428;28;8851;-58
2021/01/12 05:30:48;;;;;;;;;97.25;69.25;;;;;-7.35;88.54;99903.41;5014479;28;8909;-57
2021/01/12 05:33:20;;;;;;;;;104.50;70.25;;;;;-7.58;89.01;99903.09;5014481;28;8831;-58
2021/01/12 05:35:50;;;;;;;;;96.25;73.25;;;;;-7.60;90.01;99901.31;5014522;28;8878;-58
2021/01/12 05:38:28;;;;;;;;;106.00;72.00;;;;;-7.55;90.19;99904.88;5029702;28;8993;-58
2021/01/12 05:40:59;;;;;;;;;101.50;69.50;;;;;-7.32;90.24;99900.84;5014432;28;8839;-58
2021/01/12 05:43:40;;;;;;;;;101.25;69.25;;;;;-7.54;88.90;99897.03;5017064;28;9544;-58
2021/01/12 05:46:14;;;;;;;;;108.75;76.25;;;;;-7.17;89.23;99896.69;5018041;28;8917;-58
2021/01/12 05:48:44;;;;;;;;;111.75;76.25;;;;;-7.08;89.15;99897.69;5033661;28;8848;-58
2021/01/12 05:51:16;;;;;;;;;100.50;69.25;;;;;-7.87;89.36;99892.22;5018475;28;8870;-57
2021/01/12 05:53:46;;;;;;;;;101.00;69.00;;;;;-8.07;90.36;99894.50;5017910;28;8838;-57
2021/01/12 05:56:21;;;;;;;;;105.75;76.00;;;;;-8.32;90.07;99889.72;5018907;28;8827;-57
2021/01/12 05:58:50;;;;;;;;;105.25;72.50;;;;;-8.13;89.79;99893.53;5018189;28;8945;-58
2021/01/12 06:01:46;;;;;;;;;106.50;87.75;;;;;-8.29;90.83;99895.88;5018334;28;8855;-58
2021/01/12 06:04:15;;;;;;;;;113.25;82.50;;;;;-8.11;90.08;99891.81;5017082;28;8846;-56
2021/01/12 06:06:45;;;;;;;;;114.50;77.75;;;;;-7.78;89.27;99892.34;5017825;28;8843;-57
2021/01/12 06:09:15;;;;;;;;;107.00;74.00;;;;;-7.42;88.51;99891.16;5033234;28;8814;-56
2021/01/12 06:11:45;;;;;;;;;112.25;78.25;;;;;-7.45;88.29;99888.50;5017806;28;8839;-58
2021/01/12 06:14:17;;;;;;;;;108.50;75.00;;;;;-7.78;88.43;99887.13;5033521;28;8839;-57
2021/01/12 06:16:48;;;;;;;;;100.75;69.75;;;;;-7.97;89.04;99891.19;5017858;28;8871;-57
2021/01/12 06:19:21;;;;;;;;;107.50;73.00;;;;;-7.77;89.39;99882.78;5017937;28;8838;-57
2021/01/12 06:21:54;;;;;;;;;103.50;69.50;;;;;-7.64;89.98;99881.25;5017509;28;8890;-58
2021/01/12 06:24:37;;;;;;;;;99.50;66.00;;;;;-7.42;88.56;99870.28;5018861;28;8846;-57
2021/01/12 06:27:10;;;;;;;;;91.25;65.25;;;;;-7.81;88.01;99878.41;5017438;28;9639;-58
2021/01/12 06:29:39;;;;;;;;;93.00;66.25;;;;;-7.63;89.42;99880.41;5018320;28;9204;-58
2021/01/12 06:32:06;;;;;;;;;98.75;70.50;;;;;-7.75;88.81;99874.16;5033477;28;8885;-58
2021/01/12 06:34:40;;;;;;;;;102.50;68.50;;;;;-7.85;89.30;99880.06;5017490;28;8977;-58
2021/01/12 06:37:12;;;;;;;;;95.75;66.00;;;;;-7.55;89.37;99878.78;5017389;28;8894;-58
2021/01/12 06:39:59;;;;;;;;;106.25;70.75;;;;;-7.36;88.53;99872.97;5017055;28;8863;-56
2021/01/12 06:42:29;;;;;;;;;96.50;65.00;;;;;-7.67;88.15;99878.59;5016366;28;8827;-57
2021/01/12 06:44:59;;;;;;;;;93.50;64.25;;;;;-7.42;89.27;99882.47;5017637;28;8854;-56
2021/01/12 06:47:30;;;;;;;;;105.00;72.75;;;;;-7.51;89.00;99876.22;5017269;28;9603;-57
2021/01/12 06:50:12;;;;;;;;;95.75;66.00;;;;;-7.70;88.69;99873.34;5016326;28;9536;-58
2021/01/12 06:52:51;;;;;;;;;97.75;64.50;;;;;-7.72;88.73;99884.63;5016821;28;8866;-58
2021/01/12 06:55:20;;;;;;;;;102.00;70.75;;;;;-7.52;88.81;99884.03;5015881;28;8879;-57
2021/01/12 06:57:54;;;;;;;;;92.50;65.00;;;;;-7.44;88.19;99882.41;5016135;28;8906;-57
2021/01/12 07:00:22;;;;;;;;;90.50;66.00;;;;;-7.24;88.21;99874.88;5016901;28;8851;-55
2021/01/12 07:03:01;;;;;;;;;99.75;63.75;;;;;-6.89;87.99;99867.47;5017580;28;9517;-58
2021/01/12 07:05:40;;;;;;;;;102.75;68.00;;;;;-6.96;87.31;99881.28;5016863;28;8949;-56
2021/01/12 07:08:12;;;;;;;;;80.25;62.00;;;;;-7.47;88.01;99873.69;5031914;28;8952;-57
2021/01/12 07:10:47;;;;;;;;;110.50;72.50;;;;;-7.29;87.55;99877.41;5017009;28;8843;-57
2021/01/12 07:13:17;;;;;;;;;113.00;78.00;;;;;-7.53;87.64;99877.06;5016892;28;8837;-58
2021/01/12 07:15:47;;;;;;;;;110.00;75.75;;;;;-7.57;88.02;99876.16;5017419;28;8877;-58
2021/01/12 07:18:29;;;;;;;;;122.50;85.75;;;;;-7.30;88.12;99873.03;5015407;28;8953;-56
2021/01/12 07:20:57;;;;;;;;;132.25;91.00;;;;;-7.05;88.59;99868.16;5015502;28;8847;-58
2021/01/12 07:23:34;;;;;;;;;155.25;103.50;;;;;-7.12;89.02;99864.56;5031067;28;8847;-59
2021/01/12 07:26:05;;;;;;;;;153.75;107.25;;;;;-6.78;88.66;99871.94;5016356;28;8831;-57
2021/01/12 07:28:33;;;;;;;;;160.25;116.00;;;;;-6.63;89.06;99869.50;5016254;28;9603;-57
2021/01/12 07:31:00;;;;;;;;;186.50;126.75;;;;;-6.46;88.53;99867.06;5016606;28;8839;-58
2021/01/12 07:33:29;;;;;;;;;151.75;95.25;;;;;-6.49;88.33;99861.81;5016226;28;8909;-57
2021/01/12 07:36:00;;;;;;;;;119.50;92.25;;;;;-6.56;88.20;99863.47;5016455;28;8843;-57
2021/01/12 07:38:30;;;;;;;;;104.00;68.50;;;;;-6.34;88.04;99861.94;5015991;28;8847;-57
2021/01/12 07:41:00;;;;;;;;;96.25;68.00;;;;;-6.27;88.25;99857.66;5016424;28;8847;-57
2021/01/12 07:43:28;;;;;;;;;101.25;72.00;;;;;-6.32;87.27;99860.22;5016984;28;8835;-55
2021/01/12 07:45:57;;;;;;;;;99.75;68.50;;;;;-6.07;87.34;99856.09;5016138;28;8827;-56
2021/01/12 07:48:24;;;;;;;;;104.00;74.00;;;;;-6.09;86.57;99846.47;5015882;28;8858;-57
2021/01/12 07:50:53;;;;;;;;;108.75;75.00;;;;;-6.02;87.09;99843.94;5015736;28;8843;-57
2021/01/12 07:53:21;;;;;;;;;102.75;72.50;;;;;-5.74;87.22;99838.84;5016395;28;8839;-56
2021/01/12 07:55:49;;;;;;;;;98.00;66.00;;;;;-5.71;87.50;99844.13;5015862;28;9638;-56
2021/01/12 07:58:18;;;;;;;;;103.25;73.00;;;;;-5.36;86.81;99840.84;5015809;28;8847;-57
2021/01/12 08:00:49;;;;;;;;;111.50;73.50;;;;;-5.16;86.97;99844.44;5016045;28;8850;-57
2021/01/12 08:03:35;;;;;;;;;105.50;73.25;;;;;-5.31;88.07;99834.75;5015710;28;8866;-57
2021/01/12 08:06:04;;;;;;;;;97.75;69.25;;;;;-4.97;88.28;99839.25;5029829;28;8839;-57
2021/01/12 08:08:31;;;;;;;;;106.00;71.00;;;;;-4.76;86.94;99849.81;5015200;28;8874;-56
2021/01/12 08:11:00;;;;;;;;;102.25;71.00;;;;;-4.87;88.34;99846.25;5015815;28;8839;-58
2021/01/12 08:17:27;;;;;;;;;110.50;75.50;;;;;-4.16;85.76;99838.53;5002755;28;8949;-57
2021/01/12 08:19:55;;;;;;;;;122.00;90.50;;;;;-4.27;85.74;99844.63;5013810;28;8890;-57
2021/01/12 08:22:23;;;;;;;;;150.50;118.50;;;;;-4.52;85.88;99848.97;5013852;28;8866;-57
2021/01/12 08:24:50;;;;;;;;;150.75;105.75;;;;;-4.23;85.56;99845.53;5014009;28;8878;-57
2021/01/12 08:27:21;;;;;;;;;113.50;84.25;;;;;-4.25;84.99;99842.03;5011790;28;8941;-57
2021/01/12 08:33:46;;;;;;;;;122.75;99.75;;;;;-4.45;85.30;99839.38;5008475;28;8869;-56
2021/01/12 08:36:19;;;;;;;;;118.00;84.75;;;;;-4.30;85.18;99844.63;5027425;28;8964;-54
2021/01/12 08:38:48;;;;;;;;;136.50;95.25;;;;;-4.28;84.97;99845.53;5010835;28;8858;-58
2021/01/12 08:45:18;;;;;;;;;117.75;82.75;;;;;-3.94;85.01;99842.91;5010301;28;8878;-56
2021/01/12 08:48:32;;;;;;;;;129.25;84.50;;;;;-3.68;84.49;99836.78;5019903;28;8969;-55
2021/01/12 08:55:01;;;;;;;;;130.50;84.75;;;;;-3.33;84.35;99832.28;5010258;28;8969;-56
2021/01/12 08:57:28;;;;;;;;;125.00;94.50;;;;;-3.12;83.88;99835.72;5010934;28;8898;-55
2021/01/12 08:59:55;;;;;;;;;108.50;75.25;;;;;-3.26;85.17;99834.91;5011289;28;8839;-56
2021/01/12 09:02:22;;;;;;;;;118.50;84.75;;;;;-3.13;84.87;99827.00;5011699;28;8873;-56
2021/01/12 09:05:15;;;;;;;;;138.75;106.50;;;;;-2.93;85.50;99832.13;5010722;28;8855;-55
2021/01/12 09:07:44;;;;;;;;;151.00;115.50;;;;;-2.83;85.02;99821.59;5010519;28;9616;-56
2021/01/12 09:10:12;;;;;;;;;102.50;69.00;;;;;-2.36;84.76;99828.31;4994508;28;8839;-56
2021/01/12 09:12:42;;;;;;;;;98.50;69.75;;;;;-2.36;84.02;99823.06;5011521;28;8847;-56
2021/01/12 09:15:10;;;;;;;;;95.50;66.50;;;;;-2.08;83.40;99823.72;5011291;28;8863;-54
2021/01/12 09:17:37;;;;;;;;;92.50;62.25;;;;;-1.94;83.45;99821.00;5011135;28;8960;-56
2021/01/12 09:20:05;;;;;;;;;96.00;70.50;;;;;-2.02;83.73;99816.66;5011942;28;8871;-56
2021/01/12 09:22:31;;;;;;;;;89.50;64.25;;;;;-2.05;83.53;99814.06;5010618;28;8863;-57
2021/01/12 09:24:58;;;;;;;;;92.00;65.75;;;;;-1.89;83.27;99804.28;5011310;28;8870;-55
2021/01/12 09:27:30;;;;;;;;;96.75;69.50;;;;;-1.77;82.97;99803.25;5011227;28;8867;-54
2021/01/12 09:29:57;;;;;;;;;105.50;74.75;;;;;-1.49;82.91;99797.72;5011781;28;8881;-55
2021/01/12 09:32:34;;;;;;;;;91.25;69.00;;;;;-1.57;81.22;99795.19;5010183;28;9593;-54
2021/01/12 09:35:05;;;;;;;;;92.50;67.25;;;;;-1.50;81.34;99793.34;5011131;28;8928;-57
2021/01/12 09:37:32;;;;;;;;;96.00;67.25;;;;;-1.17;80.08;99787.69;5011352;28;8887;-56
2021/01/12 09:40:00;;;;;;;;;103.50;72.00;;;;;-1.22;80.20;99786.88;5025845;28;8831;-56
2021/01/12 09:42:29;;;;;;;;;91.25;65.50;;;;;-1.16;79.85;99786.81;5011549;28;8843;-57
2021/01/12 09:45:07;;;;;;;;;97.25;66.75;;;;;-1.00;79.79;99786.59;5011720;28;8849;-54
2021/01/12 09:47:36;;;;;;;;;85.00;60.50;;;;;-0.77;79.51;99781.00;5011851;28;8874;-57
2021/01/12 09:50:06;;;;;;;;;91.50;64.00;;;;;-0.60;78.95;99775.53;5011349;28;8965;-57
2021/01/12 09:52:34;;;;;;;;;86.50;69.00;;;;;-0.85;79.52;99765.31;5010206;28;8831;-56
2021/01/12 09:55:57;;;;;;;;;69.75;58.00;;;;;-0.61;78.95;99769.34;5025021;28;8866;-57
2021/01/12 09:58:27;;;;;;;;;91.00;66.00;;;;;-0.58;79.01;99758.78;5010499;28;8862;-57
2021/01/12 10:00:57;;;;;;;;;103.00;74.00;;;;;-0.71;78.91;99747.53;5010810;28;8863;-57
2021/01/12 10:03:24;;;;;;;;;86.25;61.25;;;;;-0.60;78.69;99743.88;5011192;28;8843;-57
2021/01/12 10:05:51;;;;;;;;;87.75;66.50;;;;;-0.44;78.58;99740.09;5014256;28;8832;-56
2021/01/12 10:08:18;;;;;;;;;81.50;58.25;;;;;-0.44;77.97;99724.28;5030610;28;8906;-57
2021/01/12 10:10:45;;;;;;;;;84.50;60.75;;;;;-0.32;77.73;99728.47;5021344;28;8847;-57
2021/01/12 10:13:12;;;;;;;;;90.25;63.25;;;;;-0.32;77.64;99718.78;5010678;28;9574;-56
2021/01/12 10:15:40;;;;;;;;;87.00;60.50;;;;;-0.25;77.08;99719.56;5010197;28;8862;-56
2021/01/12 10:18:08;;;;;;;;;69.00;53.50;;;;;-0.15;76.20;99710.59;5011135;28;8878;-56
2021/01/12 10:20:35;;;;;;;;;82.00;59.25;;;;;0.06;76.24;99704.06;5011410;28;8851;-57
2021/01/12 10:23:02;;;;;;;;;82.25;60.75;;;;;-0.10;76.43;99706.09;5021811;28;9616;-56
2021/01/12 10:25:29;;;;;;;;;79.00;56.50;;;;;0.13;76.24;99699.50;5031048;28;8859;-57
2021/01/12 10:27:57;;;;;;;;;79.50;56.00;;;;;0.08;75.26;99710.19;5031040;28;8856;-57
2021/01/12 10:30:25;;;;;;;;;84.00;54.00;;;;;0.07;76.54;99704.91;5034228;28;8874;-56
2021/01/12 10:32:52;;;;;;;;;78.75;60.25;;;;;0.05;76.24;99697.00;5034522;28;8872;-57
2021/01/12 10:35:19;;;;;;;;;85.25;62.50;;;;;0.22;77.65;99696.72;5034443;28;8840;-57
2021/01/12 10:37:46;;;;;;;;;82.25;63.25;;;;;0.02;75.25;99697.06;5034548;28;8848;-57
2021/01/12 10:40:14;;;;;;;;;77.50;59.50;;;;;0.01;74.51;99694.47;5024688;28;8916;-57
2021/01/12 10:42:43;;;;;;;;;83.50;56.50;;;;;0.05;74.69;99699.66;5029479;28;8827;-57
2021/01/12 10:45:12;;;;;;;;;77.50;54.50;;;;;0.25;74.36;99694.00;5030261;28;8862;-57
2021/01/12 10:47:43;;;;;;;;;69.50;51.25;;;;;0.09;74.91;99687.28;5030108;28;8865;-57
2021/01/12 10:50:21;;;;;;;;;70.50;51.50;;;;;0.00;75.50;99688.34;5014359;28;8838;-57
2021/01/12 10:52:48;;;;;;;;;92.25;63.50;;;;;0.08;75.51;99683.78;5028955;28;8843;-57
2021/01/12 10:55:15;;;;;;;;;71.25;54.75;;;;;0.13;75.43;99684.56;5014236;28;8850;-58
2021/01/12 10:57:45;;;;;;;;;76.50;51.75;;;;;0.16;75.98;99683.66;5026572;28;8900;-58
2021/01/12 11:00:14;;;;;;;;;86.25;60.50;;;;;0.35;75.86;99678.88;4994835;28;8846;-58
2021/01/12 11:02:41;;;;;;;;;63.00;55.75;;;;;0.45;75.61;99680.41;4998900;28;8855;-58
2021/01/12 11:05:09;;;;;;;;;89.00;62.50;;;;;0.19;76.39;99678.28;5013019;28;8830;-58
2021/01/12 11:07:40;;;;;;;;;82.25;57.50;;;;;0.42;76.30;99672.53;5013619;28;8862;-58
2021/01/12 11:10:09;;;;;;;;;100.50;70.00;;;;;0.44;76.62;99668.97;5014812;28;8885;-57
2021/01/12 11:12:36;;;;;;;;;92.50;61.00;;;;;0.50;75.78;99667.09;5010026;28;8935;-57
2021/01/12 11:15:08;;;;;;;;;87.00;61.00;;;;;0.38;75.84;99657.66;5006818;28;8856;-58
2021/01/12 11:17:35;;;;;;;;;97.00;64.25;;;;;0.22;77.35;99652.69;4994566;28;8849;-58
2021/01/12 11:20:06;;;;;;;;;99.50;70.00;;;;;0.32;76.94;99640.19;4994440;28;8877;-58
2021/01/12 11:22:33;;;;;;;;;82.00;60.00;;;;;0.55;76.74;99641.44;5009297;28;8940;-58
2021/01/12 11:25:02;;;;;;;;;83.50;62.75;;;;;0.53;76.16;99638.00;5004629;28;8962;-57
2021/01/12 11:27:31;;;;;;;;;98.50;72.00;;;;;0.60;75.48;99626.38;5013948;28;9568;-58
2021/01/12 11:29:58;;;;;;;;;92.50;64.00;;;;;0.45;75.66;99624.97;5032553;28;8887;-57
2021/01/12 11:32:26;;;;;;;;;85.75;55.50;;;;;0.54;74.85;99626.50;5026523;28;8842;-57
2021/01/12 11:34:54;;;;;;;;;87.00;59.00;;;;;0.68;74.77;99626.22;5013285;28;8973;-58
2021/01/12 11:37:21;;;;;;;;;96.75;66.75;;;;;1.09;74.12;99627.91;5011891;28;8897;-58
2021/01/12 11:39:48;;;;;;;;;88.75;62.50;;;;;0.76;73.78;99622.47;5013000;28;9022;-58
2021/01/12 11:42:15;;;;;;;;;81.25;56.00;;;;;0.65;74.46;99613.94;5013063;28;8928;-58
2021/01/12 11:44:45;;;;;;;;;89.25;62.50;;;;;0.62;74.13;99609.59;5012355;28;8881;-58
2021/01/12 11:47:12;;;;;;;;;71.00;55.75;;;;;1.06;73.55;99609.47;5012435;28;9695;-57
2021/01/12 11:49:39;;;;;;;;;84.00;62.00;;;;;1.02;73.25;99603.38;5013063;28;8851;-57